createdAt,value
2023-01-29T00:00:02.617Z,15.13
2023-01-29T00:02:29.030Z,15.37
2023-01-29T00:04:58.901Z,15.33
2023-01-29T00:07:25.615Z,13.93
2023-01-29T00:09:52.015Z,14.90
2023-01-29T00:12:18.403Z,15.37
2023-01-29T00:14:44.750Z,15.57
2023-01-29T00:17:11.283Z,15.37
2023-01-29T00:19:37.705Z,15.87
2023-01-29T00:22:04.252Z,14.63
2023-01-29T00:24:30.641Z,14.40
2023-01-29T00:26:57.204Z,15.10
2023-01-29T00:29:23.584Z,15.33
2023-01-29T00:31:50.211Z,15.07
2023-01-29T00:34:16.651Z,15.43
2023-01-29T00:36:45.007Z,14.57
2023-01-29T00:39:11.448Z,13.60
2023-01-29T00:41:56.665Z,13.80
2023-01-29T00:44:42.354Z,15.17
2023-01-29T00:47:27.476Z,14.77
2023-01-29T00:49:53.869Z,14.33
2023-01-29T00:52:26.361Z,14.70
2023-01-29T00:54:53.355Z,15.70
2023-01-29T00:57:19.834Z,13.60
2023-01-29T00:59:46.330Z,14.43
2023-01-29T01:02:31.485Z,14.50
2023-01-29T01:04:59.107Z,13.30
2023-01-29T01:07:25.500Z,14.93
2023-01-29T01:10:10.713Z,13.63
2023-01-29T01:12:37.047Z,13.83
2023-01-29T01:15:03.491Z,14.10
2023-01-29T01:17:30.036Z,14.57
2023-01-29T01:19:56.551Z,14.90
2023-01-29T01:22:23.041Z,15.03
2023-01-29T01:24:49.638Z,15.00
2023-01-29T01:27:16.707Z,13.07
2023-01-29T01:29:43.196Z,14.00
2023-01-29T01:32:09.571Z,13.93
2023-01-29T01:34:36.054Z,13.87
2023-01-29T01:37:02.499Z,14.60
2023-01-29T01:39:29.063Z,13.17
2023-01-29T01:41:55.507Z,14.17
2023-01-29T01:44:40.582Z,12.33
2023-01-29T01:47:07.025Z,12.40
2023-01-29T01:49:33.468Z,13.23
2023-01-29T01:52:01.369Z,12.70
2023-01-29T01:54:30.110Z,12.80
2023-01-29T01:57:09.246Z,12.67
2023-01-29T01:59:40.282Z,12.63
2023-01-29T02:02:25.517Z,13.67
2023-01-29T02:05:11.006Z,12.30
2023-01-29T02:08:00.534Z,12.90
2023-01-29T02:10:27.742Z,12.07
2023-01-29T02:12:54.130Z,13.20
2023-01-29T02:15:20.538Z,12.73
2023-01-29T02:17:48.460Z,13.00
2023-01-29T02:20:19.825Z,11.97
2023-01-29T02:22:56.270Z,13.13
2023-01-29T02:25:23.111Z,17.53
2023-01-29T02:27:49.642Z,12.10
2023-01-29T02:30:16.369Z,13.57
2023-01-29T02:33:07.650Z,12.50
2023-01-29T02:35:37.444Z,12.63
2023-01-29T02:38:03.772Z,12.67
2023-01-29T02:40:34.515Z,11.60
2023-01-29T02:43:27.520Z,13.20
2023-01-29T02:46:00.344Z,12.80
2023-01-29T02:48:29.437Z,12.50
2023-01-29T02:51:00.611Z,12.33
2023-01-29T02:53:36.317Z,12.73
2023-01-29T02:56:15.481Z,13.03
2023-01-29T02:59:02.165Z,11.83
2023-01-29T03:01:31.326Z,12.50
2023-01-29T03:04:01.428Z,12.03
2023-01-29T03:06:32.184Z,11.57
2023-01-29T03:08:59.914Z,11.87
2023-01-29T03:11:29.244Z,12.10
2023-01-29T03:14:07.561Z,12.07
2023-01-29T03:16:34.160Z,11.77
2023-01-29T03:19:04.575Z,11.23
2023-01-29T03:21:55.127Z,11.53
2023-01-29T03:24:44.727Z,11.27
2023-01-29T03:27:30.651Z,10.20
2023-01-29T03:30:17.444Z,10.70
2023-01-29T03:32:44.931Z,11.83
2023-01-29T03:35:12.881Z,11.30
2023-01-29T03:37:42.087Z,11.13
2023-01-29T03:40:09.669Z,10.90
2023-01-29T03:42:50.766Z,10.80
2023-01-29T03:45:17.152Z,12.10
2023-01-29T03:47:49.790Z,11.00
2023-01-29T03:50:32.675Z,11.27
2023-01-29T03:53:08.630Z,10.83
2023-01-29T03:55:34.997Z,10.53
2023-01-29T03:58:05.865Z,11.20
2023-01-29T04:00:34.956Z,10.70
2023-01-29T04:03:17.087Z,10.17
2023-01-29T04:05:46.407Z,9.70
2023-01-29T04:08:15.323Z,10.17
2023-01-29T04:10:42.958Z,10.27
2023-01-29T04:13:11.006Z,9.93
2023-01-29T04:15:44.267Z,9.97
2023-01-29T04:18:10.744Z,10.90
2023-01-29T04:20:37.268Z,11.00
2023-01-29T04:23:06.779Z,9.97
2023-01-29T04:25:40.667Z,10.23
2023-01-29T04:28:07.950Z,11.50
2023-01-29T04:30:53.293Z,10.57
2023-01-29T04:33:19.692Z,12.03
2023-01-29T04:35:48.850Z,10.80
2023-01-29T04:38:24.511Z,11.10
2023-01-29T04:40:52.599Z,10.77
2023-01-29T04:43:37.552Z,11.20
2023-01-29T04:46:13.564Z,10.60
2023-01-29T04:48:48.385Z,11.07
2023-01-29T04:51:14.767Z,11.10
2023-01-29T04:53:41.095Z,10.97
2023-01-29T04:56:19.748Z,12.10
2023-01-29T04:58:51.689Z,10.93
2023-01-29T05:01:19.654Z,10.67
2023-01-29T05:03:48.162Z,11.37
2023-01-29T05:06:15.916Z,11.43
2023-01-29T05:08:42.404Z,11.17
2023-01-29T05:11:08.997Z,10.30
2023-01-29T05:13:39.465Z,10.47
2023-01-29T05:16:18.316Z,11.90
2023-01-29T05:18:44.935Z,11.00
2023-01-29T05:21:11.447Z,12.00
2023-01-29T05:23:37.810Z,11.83
2023-01-29T05:26:05.245Z,12.83
2023-01-29T05:28:31.803Z,13.07
2023-01-29T05:30:58.399Z,11.83
2023-01-29T05:33:26.366Z,13.43
2023-01-29T05:35:52.759Z,12.10
2023-01-29T05:38:19.502Z,12.73
2023-01-29T05:40:46.120Z,12.63
2023-01-29T05:43:14.957Z,13.53
2023-01-29T05:45:41.306Z,12.80
2023-01-29T05:48:07.711Z,12.40
2023-01-29T05:50:34.139Z,13.00
2023-01-29T05:53:00.710Z,12.83
2023-01-29T05:55:27.859Z,12.77
2023-01-29T05:57:54.223Z,13.83
2023-01-29T06:00:20.789Z,12.57
2023-01-29T06:02:47.582Z,14.00
2023-01-29T06:05:14.070Z,13.13
2023-01-29T06:07:45.121Z,14.10
2023-01-29T06:10:12.793Z,14.77
2023-01-29T06:12:39.564Z,13.60
2023-01-29T06:15:06.183Z,13.70
2023-01-29T06:17:32.637Z,13.90
2023-01-29T06:19:59.073Z,13.37
2023-01-29T06:22:25.541Z,13.43
2023-01-29T06:24:51.971Z,13.23
2023-01-29T06:27:18.411Z,11.83
2023-01-29T06:29:44.838Z,12.80
2023-01-29T06:32:12.358Z,12.70
2023-01-29T06:34:38.777Z,12.63
2023-01-29T06:37:05.200Z,12.43
2023-01-29T06:39:31.604Z,11.17
2023-01-29T06:41:57.992Z,11.80
2023-01-29T06:44:24.450Z,12.80
2023-01-29T06:46:50.820Z,11.97
2023-01-29T06:49:17.293Z,11.37
2023-01-29T06:51:43.740Z,12.77
2023-01-29T06:54:10.771Z,11.97
2023-01-29T06:56:37.133Z,10.90
2023-01-29T06:59:03.754Z,11.43
2023-01-29T07:01:35.969Z,10.60
2023-01-29T07:04:03.069Z,10.43
2023-01-29T07:06:29.646Z,11.77
2023-01-29T07:08:56.131Z,11.67
2023-01-29T07:11:22.560Z,10.90
2023-01-29T07:13:48.957Z,11.37
2023-01-29T07:16:15.551Z,10.77
2023-01-29T07:18:42.067Z,11.00
2023-01-29T07:21:08.438Z,11.37
2023-01-29T07:23:35.254Z,10.83
2023-01-29T07:26:03.225Z,11.10
2023-01-29T07:28:29.921Z,11.40
2023-01-29T07:30:57.241Z,9.67
2023-01-29T07:33:23.781Z,12.20
2023-01-29T07:35:50.232Z,12.63
2023-01-29T07:38:16.645Z,10.53
2023-01-29T07:40:43.006Z,12.37
2023-01-29T07:43:09.783Z,12.27
2023-01-29T07:45:37.477Z,12.63
2023-01-29T07:48:06.927Z,13.37
2023-01-29T07:50:34.282Z,12.50
2023-01-29T07:53:00.876Z,11.00
2023-01-29T07:55:27.613Z,13.37
2023-01-29T07:57:58.172Z,12.23
2023-01-29T08:00:24.697Z,13.63
2023-01-29T08:02:51.333Z,12.33
2023-01-29T08:05:17.821Z,14.00
2023-01-29T08:07:49.216Z,13.37
2023-01-29T08:10:20.763Z,13.90
2023-01-29T08:12:47.249Z,15.67
2023-01-29T08:15:13.684Z,15.83
2023-01-29T08:17:52.608Z,16.20
2023-01-29T08:20:24.072Z,13.53
2023-01-29T08:22:58.088Z,15.30
2023-01-29T08:25:24.993Z,17.47
2023-01-29T08:27:52.232Z,16.97
2023-01-29T08:30:18.729Z,16.63
2023-01-29T08:32:45.288Z,17.17
2023-01-29T08:35:11.668Z,16.67
2023-01-29T08:37:38.081Z,18.67
2023-01-29T08:40:04.768Z,16.37
2023-01-29T08:42:31.227Z,18.53
2023-01-29T08:44:57.620Z,17.53
2023-01-29T08:47:23.993Z,18.27
2023-01-29T08:49:50.385Z,14.37
2023-01-29T08:52:16.806Z,20.40
2023-01-29T08:54:44.645Z,19.63
2023-01-29T08:57:11.017Z,21.00
2023-01-29T08:59:38.263Z,19.73
2023-01-29T09:02:04.660Z,20.93
2023-01-29T09:04:31.086Z,22.47
2023-01-29T09:06:57.519Z,22.70
2023-01-29T09:09:24.495Z,24.03
2023-01-29T09:11:53.680Z,22.67
2023-01-29T09:14:20.096Z,20.97
2023-01-29T09:16:46.507Z,23.30
2023-01-29T09:19:13.005Z,23.27
2023-01-29T09:21:39.453Z,23.77
2023-01-29T09:24:06.263Z,23.07
2023-01-29T09:26:32.804Z,25.70
2023-01-29T09:28:59.261Z,23.10
2023-01-29T09:31:25.874Z,21.60
2023-01-29T09:33:52.252Z,24.03
2023-01-29T09:36:18.781Z,24.90
2023-01-29T09:38:45.233Z,25.13
2023-01-29T09:41:30.662Z,25.73
2023-01-29T09:44:05.268Z,25.57
2023-01-29T09:46:34.742Z,25.53
2023-01-29T09:49:08.539Z,24.70
2023-01-29T09:51:37.988Z,24.73
2023-01-29T09:54:11.474Z,26.13
2023-01-29T09:56:38.017Z,25.23
2023-01-29T09:59:04.476Z,25.60
2023-01-29T10:01:40.817Z,25.33
2023-01-29T10:04:26.075Z,25.00
2023-01-29T10:07:01.684Z,25.37
2023-01-29T10:09:34.149Z,25.53
2023-01-29T10:12:26.164Z,25.20
2023-01-29T10:15:12.190Z,25.97
2023-01-29T10:17:49.537Z,26.57
2023-01-29T10:20:34.721Z,25.73
2023-01-29T10:23:01.127Z,27.33
2023-01-29T10:25:27.866Z,27.83
2023-01-29T10:27:55.340Z,26.47
2023-01-29T10:30:21.777Z,28.20
2023-01-29T10:32:48.794Z,28.53
2023-01-29T10:35:22.546Z,28.50
2023-01-29T10:37:51.822Z,27.93
2023-01-29T10:40:22.784Z,30.40
2023-01-29T10:43:06.283Z,28.50
2023-01-29T10:45:41.957Z,29.57
2023-01-29T10:48:31.311Z,29.33
2023-01-29T10:51:12.173Z,28.40
2023-01-29T10:53:38.593Z,27.73
2023-01-29T10:56:30.421Z,27.23
2023-01-29T10:58:59.222Z,28.77
2023-01-29T11:01:27.032Z,25.33
2023-01-29T11:04:01.555Z,29.40
2023-01-29T11:06:30.418Z,26.50
2023-01-29T11:09:01.699Z,28.80
2023-01-29T11:11:47.765Z,27.80
2023-01-29T11:14:16.486Z,25.10
2023-01-29T11:16:44.392Z,27.10
2023-01-29T11:19:11.125Z,26.37
2023-01-29T11:22:09.960Z,27.97
2023-01-29T11:24:36.362Z,26.50
2023-01-29T11:27:13.195Z,25.17
2023-01-29T11:29:39.613Z,21.77
2023-01-29T11:32:13.510Z,22.70
2023-01-29T11:34:58.637Z,24.07
2023-01-29T11:37:31.864Z,24.23
2023-01-29T11:39:58.235Z,24.97
2023-01-29T11:42:27.005Z,20.87
2023-01-29T11:44:53.346Z,24.70
2023-01-29T11:47:21.130Z,22.93
2023-01-29T11:49:52.516Z,22.90
2023-01-29T11:52:20.646Z,21.70
2023-01-29T11:54:47.092Z,23.57
2023-01-29T11:57:23.809Z,22.87
2023-01-29T11:59:51.658Z,22.03
2023-01-29T12:02:20.925Z,21.20
2023-01-29T12:04:47.795Z,21.03
2023-01-29T12:07:15.230Z,20.53
2023-01-29T12:09:41.841Z,20.80
2023-01-29T12:12:18.703Z,17.77
2023-01-29T12:14:45.121Z,20.53
2023-01-29T12:17:24.198Z,21.53
2023-01-29T12:19:56.272Z,21.20
2023-01-29T12:22:27.453Z,19.27
2023-01-29T12:24:59.074Z,21.60
2023-01-29T12:27:29.930Z,23.30
2023-01-29T12:30:15.315Z,20.27
2023-01-29T12:32:44.917Z,22.50
2023-01-29T12:35:11.277Z,19.73
2023-01-29T12:37:56.165Z,23.20
2023-01-29T12:40:25.171Z,22.53
2023-01-29T12:42:53.327Z,21.83
2023-01-29T12:45:21.206Z,21.47
2023-01-29T12:47:49.920Z,21.80
2023-01-29T12:50:30.283Z,20.87
2023-01-29T12:52:59.427Z,22.70
2023-01-29T12:55:34.973Z,22.53
2023-01-29T12:58:02.427Z,22.13
2023-01-29T13:00:33.876Z,20.27
2023-01-29T13:03:18.646Z,21.43
2023-01-29T13:05:53.283Z,18.73
2023-01-29T13:08:21.959Z,20.57
2023-01-29T13:10:52.866Z,15.97
2023-01-29T13:13:22.068Z,18.43
2023-01-29T13:15:49.069Z,18.27
2023-01-29T13:18:31.757Z,18.57
2023-01-29T13:20:59.436Z,21.27
2023-01-29T13:23:30.887Z,19.20
2023-01-29T13:25:57.814Z,16.50
2023-01-29T13:28:25.703Z,19.97
2023-01-29T13:31:11.011Z,19.83
2023-01-29T13:33:37.984Z,19.90
2023-01-29T13:36:04.919Z,19.80
2023-01-29T13:38:33.445Z,21.70
2023-01-29T13:41:06.007Z,20.10
2023-01-29T13:43:35.451Z,19.40
2023-01-29T13:46:07.482Z,19.10
2023-01-29T13:48:37.039Z,19.13
2023-01-29T13:51:15.561Z,19.97
2023-01-29T13:53:42.402Z,19.47
2023-01-29T13:56:27.624Z,18.30
2023-01-29T13:58:55.071Z,19.53
2023-01-29T14:01:44.398Z,20.67
2023-01-29T14:04:22.566Z,21.87
2023-01-29T14:06:50.045Z,21.13
2023-01-29T14:09:32.020Z,20.73
2023-01-29T14:11:58.754Z,21.40
2023-01-29T14:14:43.724Z,23.57
2023-01-29T14:17:10.255Z,23.03
2023-01-29T14:19:36.753Z,22.07
2023-01-29T14:22:04.823Z,20.87
2023-01-29T14:24:31.589Z,21.83
2023-01-29T14:26:58.255Z,22.77
2023-01-29T14:29:34.196Z,22.00
2023-01-29T14:32:01.584Z,22.30
2023-01-29T14:34:29.930Z,21.37
2023-01-29T14:36:57.797Z,23.53
2023-01-29T14:39:36.246Z,22.47
2023-01-29T14:42:04.153Z,23.53
2023-01-29T14:44:45.889Z,18.93
2023-01-29T14:47:27.479Z,21.30
2023-01-29T14:49:58.013Z,20.07
2023-01-29T14:52:40.120Z,22.93
2023-01-29T14:55:20.827Z,22.10
2023-01-29T14:57:48.604Z,23.47
2023-01-29T15:00:19.156Z,22.77
2023-01-29T15:02:46.219Z,20.43
2023-01-29T15:05:23.907Z,21.10
2023-01-29T15:07:53.215Z,22.60
2023-01-29T15:10:23.459Z,23.03
2023-01-29T15:13:00.562Z,23.27
2023-01-29T15:15:33.393Z,22.50
2023-01-29T15:18:09.192Z,19.80
2023-01-29T15:20:36.657Z,22.87
2023-01-29T15:23:03.683Z,21.83
2023-01-29T15:25:46.822Z,20.23
2023-01-29T15:28:13.245Z,21.53
2023-01-29T15:30:40.317Z,22.40
2023-01-29T15:33:10.779Z,24.27
2023-01-29T15:35:38.673Z,22.57
2023-01-29T15:38:16.205Z,29.13
2023-01-29T15:40:51.077Z,24.87
2023-01-29T15:43:22.595Z,21.43
2023-01-29T15:45:50.001Z,24.10
2023-01-29T15:48:18.870Z,25.67
2023-01-29T15:50:45.487Z,23.67
2023-01-29T15:53:17.855Z,23.57
2023-01-29T15:55:44.693Z,22.87
2023-01-29T15:58:31.233Z,26.10
2023-01-29T16:00:58.764Z,23.87
2023-01-29T16:03:26.576Z,24.93
2023-01-29T16:05:53.577Z,25.43
2023-01-29T16:08:21.690Z,23.77
2023-01-29T16:10:52.813Z,24.27
2023-01-29T16:13:22.049Z,23.40
2023-01-29T16:16:02.360Z,18.70
2023-01-29T16:18:30.519Z,25.47
2023-01-29T16:20:58.493Z,29.87
2023-01-29T16:23:27.754Z,22.90
2023-01-29T16:25:56.439Z,22.17
2023-01-29T16:28:26.022Z,24.00
2023-01-29T16:30:58.026Z,22.77
2023-01-29T16:33:29.954Z,19.23
2023-01-29T16:35:56.485Z,19.83
2023-01-29T16:38:26.738Z,21.30
2023-01-29T16:41:07.226Z,20.80
2023-01-29T16:43:53.290Z,20.60
2023-01-29T16:46:35.913Z,22.07
2023-01-29T16:49:02.504Z,21.53
2023-01-29T16:51:30.618Z,21.10
2023-01-29T16:54:01.393Z,20.57
2023-01-29T16:56:29.995Z,22.07
2023-01-29T16:58:56.882Z,22.13
2023-01-29T17:01:24.729Z,22.10
2023-01-29T17:03:56.870Z,22.73
2023-01-29T17:06:24.744Z,21.30
2023-01-29T17:08:51.764Z,22.43
2023-01-29T17:11:27.795Z,22.80
2023-01-29T17:13:55.748Z,21.93
2023-01-29T17:16:25.675Z,22.23
2023-01-29T17:18:52.382Z,22.67
2023-01-29T17:21:18.896Z,21.40
2023-01-29T17:23:45.379Z,21.10
2023-01-29T17:26:12.807Z,14.27
2023-01-29T17:28:39.639Z,17.93
2023-01-29T17:31:07.794Z,20.77
2023-01-29T17:33:35.584Z,21.13
2023-01-29T17:36:02.051Z,18.83
2023-01-29T17:38:28.432Z,19.47
2023-01-29T17:41:00.030Z,19.60
2023-01-29T17:43:26.609Z,19.57
2023-01-29T17:45:53.216Z,19.50
2023-01-29T17:48:21.782Z,19.83
2023-01-29T17:50:49.642Z,17.63
2023-01-29T17:53:16.065Z,18.80
2023-01-29T17:55:42.766Z,19.90
2023-01-29T17:58:25.830Z,20.83
2023-01-29T18:00:52.813Z,20.67
2023-01-29T18:03:19.257Z,19.47
2023-01-29T18:05:46.620Z,21.50
2023-01-29T18:08:33.158Z,20.07
2023-01-29T18:11:00.470Z,21.93
2023-01-29T18:13:27.465Z,16.53
2023-01-29T18:15:54.024Z,22.33
2023-01-29T18:18:21.456Z,22.23
2023-01-29T18:20:48.902Z,20.43
2023-01-29T18:23:15.277Z,19.60
2023-01-29T18:25:43.082Z,18.67
2023-01-29T18:28:13.070Z,19.77
2023-01-29T18:30:39.621Z,20.13
2023-01-29T18:33:06.098Z,20.33
2023-01-29T18:35:32.513Z,21.20
2023-01-29T18:37:58.933Z,18.90
2023-01-29T18:40:25.932Z,20.67
2023-01-29T18:42:52.657Z,22.67
2023-01-29T18:45:19.425Z,22.17
2023-01-29T18:47:46.292Z,19.73
2023-01-29T18:50:12.693Z,21.50
2023-01-29T18:52:39.300Z,22.50
2023-01-29T18:55:05.936Z,32.07
2023-01-29T18:58:26.819Z,23.27
2023-01-29T19:00:20.014Z,21.80
2023-01-29T19:02:46.618Z,21.00
2023-01-29T19:05:13.042Z,19.57
2023-01-29T19:07:39.583Z,21.17
2023-01-29T19:10:12.687Z,23.77
2023-01-29T19:12:42.775Z,24.23
2023-01-29T19:15:13.173Z,23.63
2023-01-29T19:17:39.628Z,25.23
2023-01-29T19:20:07.553Z,26.10
2023-01-29T19:22:33.999Z,25.30
2023-01-29T19:25:00.370Z,23.30
2023-01-29T19:27:30.774Z,25.00
2023-01-29T19:29:58.186Z,26.93
2023-01-29T19:32:24.624Z,25.43
2023-01-29T19:34:51.223Z,25.67
2023-01-29T19:37:17.788Z,28.07
2023-01-29T19:39:46.758Z,28.90
2023-01-29T19:42:13.214Z,25.80
2023-01-29T19:44:39.964Z,30.03
2023-01-29T19:47:06.401Z,29.47
2023-01-29T19:49:34.133Z,27.33
2023-01-29T19:52:01.137Z,28.77
2023-01-29T19:54:28.055Z,31.00
2023-01-29T19:56:54.581Z,29.50
2023-01-29T19:59:21.037Z,29.30
2023-01-29T20:01:47.385Z,29.57
2023-01-29T20:04:13.766Z,25.53
2023-01-29T20:06:40.153Z,25.87
2023-01-29T20:09:06.902Z,30.37
2023-01-29T20:11:33.473Z,31.00
2023-01-29T20:13:59.899Z,29.90
2023-01-29T20:16:26.941Z,29.60
2023-01-29T20:18:53.382Z,31.47
2023-01-29T20:21:20.766Z,29.43
2023-01-29T20:23:49.235Z,30.43
2023-01-29T20:26:16.543Z,23.03
2023-01-29T20:28:44.897Z,33.07
2023-01-29T20:31:11.326Z,32.07
2023-01-29T20:33:39.511Z,31.23
2023-01-29T20:36:07.128Z,27.33
2023-01-29T20:38:34.685Z,31.63
2023-01-29T20:41:05.105Z,32.83
2023-01-29T20:43:32.111Z,29.43
2023-01-29T20:45:58.980Z,28.77
2023-01-29T20:48:26.077Z,27.77
2023-01-29T20:50:52.938Z,30.93
2023-01-29T20:53:19.349Z,30.60
2023-01-29T20:55:46.181Z,31.93
2023-01-29T20:58:12.647Z,31.73
2023-01-29T21:00:39.151Z,32.67
2023-01-29T21:03:05.635Z,31.53
2023-01-29T21:05:32.404Z,29.93
2023-01-29T21:07:58.831Z,31.03
2023-01-29T21:10:25.340Z,32.20
2023-01-29T21:12:51.734Z,31.23
2023-01-29T21:15:19.750Z,32.00
2023-01-29T21:17:47.286Z,31.67
2023-01-29T21:20:13.831Z,32.40
2023-01-29T21:22:42.646Z,31.20
2023-01-29T21:25:09.211Z,20.97
2023-01-29T21:27:35.684Z,32.03
2023-01-29T21:30:02.158Z,30.13
2023-01-29T21:32:28.534Z,31.90
2023-01-29T21:34:54.960Z,30.47
2023-01-29T21:37:21.473Z,24.50
2023-01-29T21:39:47.925Z,31.30
2023-01-29T21:42:37.374Z,31.30
2023-01-29T21:45:04.171Z,31.77
2023-01-29T21:47:30.581Z,26.13
2023-01-29T21:49:57.038Z,30.27
2023-01-29T21:52:23.411Z,31.47
2023-01-29T21:54:50.284Z,29.93
2023-01-29T21:57:16.999Z,30.20
2023-01-29T21:59:43.813Z,24.90
2023-01-29T22:02:16.605Z,26.23
2023-01-29T22:04:43.202Z,25.43
2023-01-29T22:07:10.569Z,30.77
2023-01-29T22:09:37.400Z,28.50
2023-01-29T22:12:03.987Z,29.90
2023-01-29T22:14:30.464Z,29.23
2023-01-29T22:16:56.863Z,24.80
2023-01-29T22:19:25.270Z,28.93
2023-01-29T22:21:52.397Z,29.30
2023-01-29T22:24:19.684Z,32.03
2023-01-29T22:26:48.471Z,30.90
2023-01-29T22:29:17.157Z,32.53
2023-01-29T22:31:43.908Z,31.27
2023-01-29T22:34:10.734Z,31.40
2023-01-29T22:36:37.335Z,29.43
2023-01-29T22:39:03.681Z,25.77
2023-01-29T22:41:30.138Z,30.27
2023-01-29T22:43:56.493Z,28.43
2023-01-29T22:46:23.022Z,29.63
2023-01-29T22:48:49.415Z,30.70
2023-01-29T22:51:15.796Z,28.87
2023-01-29T22:53:42.256Z,29.03
2023-01-29T22:56:09.144Z,29.70
2023-01-29T22:58:35.591Z,23.63
2023-01-29T23:01:02.014Z,28.93
2023-01-29T23:03:28.426Z,29.90
2023-01-29T23:05:54.810Z,22.13
2023-01-29T23:08:21.225Z,29.57
2023-01-29T23:10:47.617Z,28.10
2023-01-29T23:13:13.980Z,28.67
2023-01-29T23:15:40.374Z,28.43
2023-01-29T23:18:07.213Z,30.17
2023-01-29T23:20:33.553Z,29.23
2023-01-29T23:23:00.174Z,26.30
2023-01-29T23:25:45.190Z,29.07
2023-01-29T23:28:11.637Z,29.97
2023-01-29T23:30:38.055Z,28.37
2023-01-29T23:33:04.663Z,27.27
2023-01-29T23:35:31.112Z,29.03
2023-01-29T23:37:57.534Z,25.17
2023-01-29T23:40:23.931Z,27.47
2023-01-29T23:42:50.533Z,27.57
2023-01-29T23:45:16.926Z,26.40
2023-01-29T23:47:43.362Z,26.07
2023-01-29T23:50:10.148Z,26.00
2023-01-29T23:52:36.579Z,26.57
2023-01-29T23:55:03.186Z,25.73
2023-01-29T23:57:29.645Z,29.00
2023-01-29T23:59:55.992Z,28.13
